sensor_id;sensor_type;location;lat;lon;timestamp;pressure;altitude;pressure_sealevel;temperature;humidity
65832;BME280;52593;42.648;23.332;2023-04-01T00:00:16;93656.81;;;9.60;65.21
65832;BME280;52593;42.648;23.332;2023-04-01T00:02:42;93661.69;;;9.43;66.09
65832;BME280;52593;42.648;23.332;2023-04-01T00:05:08;93662.53;;;9.50;64.93
65832;BME280;52593;42.648;23.332;2023-04-01T00:07:35;93653.94;;;9.55;64.25
65832;BME280;52593;42.648;23.332;2023-04-01T00:10:02;93655.59;;;9.62;64.53
65832;BME280;52593;42.648;23.332;2023-04-01T00:12:27;93673.72;;;9.74;64.19
65832;BME280;52593;42.648;23.332;2023-04-01T00:14:53;93674.09;;;9.57;65.51
65832;BME280;52593;42.648;23.332;2023-04-01T00:17:18;93677.16;;;9.54;66.56
65832;BME280;52593;42.648;23.332;2023-04-01T00:19:43;93685.75;;;9.50;65.92
65832;BME280;52593;42.648;23.332;2023-04-01T00:22:09;93674.25;;;9.49;65.31
65832;BME280;52593;42.648;23.332;2023-04-01T00:24:37;93679.81;;;9.54;65.04
65832;BME280;52593;42.648;23.332;2023-04-01T00:27:03;93694.19;;;9.53;65.72
65832;BME280;52593;42.648;23.332;2023-04-01T00:29:28;93675.31;;;9.61;64.85
65832;BME280;52593;42.648;23.332;2023-04-01T00:31:56;93685.59;;;9.64;65.09
65832;BME280;52593;42.648;23.332;2023-04-01T00:34:22;93675.09;;;9.50;66.17
65832;BME280;52593;42.648;23.332;2023-04-01T00:36:49;93685.13;;;9.48;66.14
65832;BME280;52593;42.648;23.332;2023-04-01T00:39:15;93670.94;;;9.40;66.31
65832;BME280;52593;42.648;23.332;2023-04-01T00:41:40;93671.13;;;9.39;66.67
65832;BME280;52593;42.648;23.332;2023-04-01T00:44:19;93658.81;;;9.44;66.14
65832;BME280;52593;42.648;23.332;2023-04-01T00:46:45;93664.53;;;9.35;67.31
65832;BME280;52593;42.648;23.332;2023-04-01T00:49:10;93645.25;;;9.39;67.76
65832;BME280;52593;42.648;23.332;2023-04-01T00:51:36;93637.16;;;9.26;68.75
65832;BME280;52593;42.648;23.332;2023-04-01T00:54:04;93661.63;;;9.30;68.74
65832;BME280;52593;42.648;23.332;2023-04-01T00:56:34;93653.56;;;9.23;69.72
65832;BME280;52593;42.648;23.332;2023-04-01T00:59:04;93642.75;;;9.31;69.65
65832;BME280;52593;42.648;23.332;2023-04-01T01:01:34;93637.34;;;9.18;69.55
65832;BME280;52593;42.648;23.332;2023-04-01T01:04:01;93645.88;;;9.06;69.92
65832;BME280;52593;42.648;23.332;2023-04-01T01:06:58;93634.94;;;8.95;70.71
65832;BME280;52593;42.648;23.332;2023-04-01T01:12:19;93625.50;;;8.99;69.81
65832;BME280;52593;42.648;23.332;2023-04-01T01:18:03;93611.56;;;8.97;69.90
65832;BME280;52593;42.648;23.332;2023-04-01T01:37:17;93571.94;;;8.93;68.72
65832;BME280;52593;42.648;23.332;2023-04-01T01:39:51;93593.47;;;8.92;68.15
65832;BME280;52593;42.648;23.332;2023-04-01T01:42:20;93597.81;;;9.00;67.19
65832;BME280;52593;42.648;23.332;2023-04-01T01:44:47;93578.16;;;9.07;67.28
65832;BME280;52593;42.648;23.332;2023-04-01T01:47:15;93580.22;;;9.12;67.00
65832;BME280;52593;42.648;23.332;2023-04-01T01:49:43;93580.22;;;9.05;66.47
65832;BME280;52593;42.648;23.332;2023-04-01T01:52:08;93567.91;;;9.11;65.83
65832;BME280;52593;42.648;23.332;2023-04-01T01:54:35;93563.81;;;9.08;66.47
65832;BME280;52593;42.648;23.332;2023-04-01T01:57:08;93566.69;;;9.14;65.04
65832;BME280;52593;42.648;23.332;2023-04-01T01:59:38;93556.66;;;9.22;66.08
65832;BME280;52593;42.648;23.332;2023-04-01T02:02:06;93557.06;;;9.19;65.84
65832;BME280;52593;42.648;23.332;2023-04-01T02:04:36;93545.81;;;9.31;64.10
65832;BME280;52593;42.648;23.332;2023-04-01T02:07:03;93547.66;;;9.37;64.39
65832;BME280;52593;42.648;23.332;2023-04-01T02:09:32;93551.53;;;9.21;64.66
65832;BME280;52593;42.648;23.332;2023-04-01T02:12:03;93544.19;;;9.30;64.31
65832;BME280;52593;42.648;23.332;2023-04-01T02:17:08;93543.53;;;9.21;64.16
65832;BME280;52593;42.648;23.332;2023-04-01T02:19:39;93543.59;;;9.41;62.59
65832;BME280;52593;42.648;23.332;2023-04-01T02:22:10;93552.63;;;9.40;63.57
65832;BME280;52593;42.648;23.332;2023-04-01T02:24:38;93537.78;;;9.31;65.83
65832;BME280;52593;42.648;23.332;2023-04-01T02:27:05;93525.91;;;9.26;65.48
65832;BME280;52593;42.648;23.332;2023-04-01T02:29:31;93534.06;;;9.18;65.38
65832;BME280;52593;42.648;23.332;2023-04-01T02:31:58;93536.19;;;9.36;64.33
65832;BME280;52593;42.648;23.332;2023-04-01T02:34:24;93538.19;;;9.27;65.10
65832;BME280;52593;42.648;23.332;2023-04-01T02:36:50;93549.53;;;9.30;65.12
65832;BME280;52593;42.648;23.332;2023-04-01T02:39:16;93549.97;;;9.46;63.09
65832;BME280;52593;42.648;23.332;2023-04-01T02:41:44;93542.97;;;9.45;62.58
65832;BME280;52593;42.648;23.332;2023-04-01T02:44:11;93557.47;;;9.23;65.07
65832;BME280;52593;42.648;23.332;2023-04-01T02:46:37;93557.28;;;9.18;64.44
65832;BME280;52593;42.648;23.332;2023-04-01T02:49:03;93544.97;;;9.23;63.79
65832;BME280;52593;42.648;23.332;2023-04-01T02:51:28;93550.88;;;9.19;64.91
65832;BME280;52593;42.648;23.332;2023-04-01T02:53:54;93556.81;;;9.14;66.13
65832;BME280;52593;42.648;23.332;2023-04-01T02:56:20;93567.75;;;9.19;65.51
65832;BME280;52593;42.648;23.332;2023-04-01T02:58:46;93560.75;;;9.18;64.64
65832;BME280;52593;42.648;23.332;2023-04-01T03:01:12;93568.75;;;9.12;65.18
65832;BME280;52593;42.648;23.332;2023-04-01T03:03:37;93576.94;;;9.10;64.95
65832;BME280;52593;42.648;23.332;2023-04-01T03:06:11;93575.09;;;9.17;64.29
65832;BME280;52593;42.648;23.332;2023-04-01T03:08:37;93584.97;;;9.17;63.95
65832;BME280;52593;42.648;23.332;2023-04-01T03:11:03;93580.25;;;9.19;63.42
65832;BME280;52593;42.648;23.332;2023-04-01T03:13:29;93570.03;;;9.29;63.07
65832;BME280;52593;42.648;23.332;2023-04-01T03:15:54;93578.03;;;9.22;64.57
65832;BME280;52593;42.648;23.332;2023-04-01T03:18:20;93570.81;;;9.16;64.45
65832;BME280;52593;42.648;23.332;2023-04-01T03:20:45;93572.28;;;9.25;64.72
65832;BME280;52593;42.648;23.332;2023-04-01T03:23:11;93596.53;;;9.31;64.03
65832;BME280;52593;42.648;23.332;2023-04-01T03:25:37;93582.16;;;9.32;64.28
65832;BME280;52593;42.648;23.332;2023-04-01T03:28:03;93575.75;;;9.19;66.01
65832;BME280;52593;42.648;23.332;2023-04-01T03:30:28;93610.06;;;9.29;66.05
65832;BME280;52593;42.648;23.332;2023-04-01T03:32:58;93595.31;;;9.26;65.32
65832;BME280;52593;42.648;23.332;2023-04-01T03:35:27;93605.53;;;9.23;67.03
65832;BME280;52593;42.648;23.332;2023-04-01T03:37:53;93579.91;;;9.28;65.06
65832;BME280;52593;42.648;23.332;2023-04-01T03:40:19;93584.66;;;9.40;65.57
65832;BME280;52593;42.648;23.332;2023-04-01T03:42:45;93583.63;;;9.41;65.65
65832;BME280;52593;42.648;23.332;2023-04-01T03:45:11;93560.41;;;9.28;67.63
65832;BME280;52593;42.648;23.332;2023-04-01T03:47:39;93552.75;;;9.18;70.13
65832;BME280;52593;42.648;23.332;2023-04-01T03:50:06;93552.53;;;9.13;70.10
65832;BME280;52593;42.648;23.332;2023-04-01T03:52:32;93533.06;;;9.19;69.32
65832;BME280;52593;42.648;23.332;2023-04-01T03:54:58;93518.66;;;9.20;69.01
65832;BME280;52593;42.648;23.332;2023-04-01T03:57:23;93502.03;;;9.18;68.25
65832;BME280;52593;42.648;23.332;2023-04-01T03:59:48;93494.72;;;9.40;66.53
65832;BME280;52593;42.648;23.332;2023-04-01T04:02:14;93478.91;;;9.45;65.40
65832;BME280;52593;42.648;23.332;2023-04-01T04:04:39;93481.56;;;9.52;65.64
65832;BME280;52593;42.648;23.332;2023-04-01T04:07:06;93472.13;;;9.50;66.43
65832;BME280;52593;42.648;23.332;2023-04-01T04:09:31;93474.19;;;9.61;67.10
65832;BME280;52593;42.648;23.332;2023-04-01T04:11:57;93474.59;;;9.51;67.97
65832;BME280;52593;42.648;23.332;2023-04-01T04:14:23;93472.75;;;9.52;66.65
65832;BME280;52593;42.648;23.332;2023-04-01T04:16:48;93455.47;;;9.41;68.62
65832;BME280;52593;42.648;23.332;2023-04-01T04:19:14;93449.13;;;9.42;67.50
65832;BME280;52593;42.648;23.332;2023-04-01T04:21:40;93452.81;;;9.48;65.05
65832;BME280;52593;42.648;23.332;2023-04-01T04:24:06;93457.34;;;9.54;64.75
65832;BME280;52593;42.648;23.332;2023-04-01T04:26:31;93446.47;;;9.42;64.79
65832;BME280;52593;42.648;23.332;2023-04-01T04:28:57;93445.00;;;9.46;64.53
65832;BME280;52593;42.648;23.332;2023-04-01T04:31:24;93439.06;;;9.37;65.30
65832;BME280;52593;42.648;23.332;2023-04-01T04:33:50;93444.41;;;9.37;64.83
65832;BME280;52593;42.648;23.332;2023-04-01T04:36:17;93430.00;;;9.38;65.03
65832;BME280;52593;42.648;23.332;2023-04-01T04:38:42;93432.06;;;9.36;65.41
65832;BME280;52593;42.648;23.332;2023-04-01T04:41:18;93419.53;;;9.37;65.12
65832;BME280;52593;42.648;23.332;2023-04-01T04:43:55;93413.38;;;9.36;64.73
65832;BME280;52593;42.648;23.332;2023-04-01T04:46:21;93413.38;;;9.36;64.96
65832;BME280;52593;42.648;23.332;2023-04-01T04:48:47;93409.25;;;9.34;64.26
65832;BME280;52593;42.648;23.332;2023-04-01T04:51:17;93389.56;;;9.48;62.46
65832;BME280;52593;42.648;23.332;2023-04-01T04:53:43;93413.38;;;9.43;62.74
65832;BME280;52593;42.648;23.332;2023-04-01T04:56:09;93406.00;;;9.45;63.09
65832;BME280;52593;42.648;23.332;2023-04-01T04:58:34;93407.03;;;9.37;65.06
65832;BME280;52593;42.648;23.332;2023-04-01T05:01:06;93409.06;;;9.28;66.00
65832;BME280;52593;42.648;23.332;2023-04-01T05:03:32;93403.28;;;9.12;66.46
65832;BME280;52593;42.648;23.332;2023-04-01T05:05:57;93410.88;;;9.15;65.87
65832;BME280;52593;42.648;23.332;2023-04-01T05:08:22;93392.16;;;9.01;66.04
65832;BME280;52593;42.648;23.332;2023-04-01T05:10:48;93406.13;;;8.97;66.83
65832;BME280;52593;42.648;23.332;2023-04-01T05:13:13;93398.72;;;8.85;67.13
65832;BME280;52593;42.648;23.332;2023-04-01T05:15:39;93390.66;;;8.72;68.98
65832;BME280;52593;42.648;23.332;2023-04-01T05:18:04;93393.53;;;8.70;69.08
65832;BME280;52593;42.648;23.332;2023-04-01T05:20:29;93390.88;;;8.70;68.80
65832;BME280;52593;42.648;23.332;2023-04-01T05:22:56;93377.34;;;8.79;69.32
65832;BME280;52593;42.648;23.332;2023-04-01T05:25:21;93353.31;;;8.72;68.86
65832;BME280;52593;42.648;23.332;2023-04-01T05:27:47;93368.44;;;8.51;70.18
65832;BME280;52593;42.648;23.332;2023-04-01T05:30:12;93376.44;;;8.51;70.18
65832;BME280;52593;42.648;23.332;2023-04-01T05:32:37;93368.84;;;8.48;70.38
65832;BME280;52593;42.648;23.332;2023-04-01T05:35:03;93371.59;;;8.68;70.13
65832;BME280;52593;42.648;23.332;2023-04-01T05:37:29;93371.25;;;8.43;71.15
65832;BME280;52593;42.648;23.332;2023-04-01T05:39:54;93370.31;;;8.57;70.50
65832;BME280;52593;42.648;23.332;2023-04-01T05:42:20;93374.47;;;8.67;69.28
65832;BME280;52593;42.648;23.332;2023-04-01T05:44:45;93365.06;;;8.84;68.63
65832;BME280;52593;42.648;23.332;2023-04-01T05:47:11;93351.31;;;8.94;68.16
65832;BME280;52593;42.648;23.332;2023-04-01T05:49:36;93372.28;;;9.04;68.15
65832;BME280;52593;42.648;23.332;2023-04-01T05:52:01;93372.69;;;9.14;66.03
65832;BME280;52593;42.648;23.332;2023-04-01T05:54:27;93365.50;;;9.21;65.83
65832;BME280;52593;42.648;23.332;2023-04-01T05:56:52;93350.13;;;9.37;64.06
65832;BME280;52593;42.648;23.332;2023-04-01T05:59:18;93348.91;;;9.53;63.79
65832;BME280;52593;42.648;23.332;2023-04-01T06:01:43;93347.84;;;9.67;63.28
65832;BME280;52593;42.648;23.332;2023-04-01T06:04:16;93354.16;;;9.86;63.40
65832;BME280;52593;42.648;23.332;2023-04-01T06:06:42;93337.88;;;10.14;61.24
65832;BME280;52593;42.648;23.332;2023-04-01T06:09:13;93354.66;;;10.48;58.98
65832;BME280;52593;42.648;23.332;2023-04-01T06:28:54;93352.13;;;11.31;54.75
65832;BME280;52593;42.648;23.332;2023-04-01T06:31:51;93354.53;;;11.39;53.82
65832;BME280;52593;42.648;23.332;2023-04-01T06:50:48;93319.13;;;11.37;56.00
65832;BME280;52593;42.648;23.332;2023-04-01T06:53:24;93331.19;;;11.46;54.27
65832;BME280;52593;42.648;23.332;2023-04-01T06:55:57;93306.81;;;11.29;54.75
65832;BME280;52593;42.648;23.332;2023-04-01T06:58:30;93298.56;;;11.31;55.62
65832;BME280;52593;42.648;23.332;2023-04-01T07:01:02;93302.88;;;11.32;56.02
65832;BME280;52593;42.648;23.332;2023-04-01T07:03:44;93294.44;;;11.28;57.03
65832;BME280;52593;42.648;23.332;2023-04-01T07:06:20;93299.22;;;11.26;57.86
65832;BME280;52593;42.648;23.332;2023-04-01T07:08:49;93311.88;;;11.37;56.37
65832;BME280;52593;42.648;23.332;2023-04-01T07:11:28;93318.34;;;11.30;57.41
65832;BME280;52593;42.648;23.332;2023-04-01T07:14:10;93293.78;;;11.33;57.73
65832;BME280;52593;42.648;23.332;2023-04-01T07:16:47;93291.09;;;11.39;58.12
65832;BME280;52593;42.648;23.332;2023-04-01T07:19:58;93293.31;;;11.42;58.44
65832;BME280;52593;42.648;23.332;2023-04-01T07:24:40;93288.56;;;11.45;59.40
65832;BME280;52593;42.648;23.332;2023-04-01T07:27:12;93322.88;;;11.54;58.56
65832;BME280;52593;42.648;23.332;2023-04-01T07:29:37;93309.09;;;11.51;59.30
65832;BME280;52593;42.648;23.332;2023-04-01T07:35:13;93297.44;;;11.64;58.66
65832;BME280;52593;42.648;23.332;2023-04-01T07:37:50;93308.09;;;11.70;59.00
65832;BME280;52593;42.648;23.332;2023-04-01T07:40:52;93310.63;;;11.84;57.84
65832;BME280;52593;42.648;23.332;2023-04-01T07:49:10;93277.13;;;11.74;58.59
65832;BME280;52593;42.648;23.332;2023-04-01T07:52:12;93270.94;;;11.55;58.89
65832;BME280;52593;42.648;23.332;2023-04-01T07:57:30;93295.16;;;11.67;59.79
65832;BME280;52593;42.648;23.332;2023-04-01T08:00:15;93278.38;;;11.53;59.26
65832;BME280;52593;42.648;23.332;2023-04-01T08:05:55;93271.31;;;11.77;59.63
65832;BME280;52593;42.648;23.332;2023-04-01T08:14:11;93261.56;;;12.08;58.29
65832;BME280;52593;42.648;23.332;2023-04-01T08:22:09;93240.56;;;12.36;58.17
65832;BME280;52593;42.648;23.332;2023-04-01T08:24:42;93240.56;;;12.36;57.76
65832;BME280;52593;42.648;23.332;2023-04-01T08:27:25;93226.31;;;12.54;57.89
65832;BME280;52593;42.648;23.332;2023-04-01T08:32:37;93215.41;;;12.79;56.67
65832;BME280;52593;42.648;23.332;2023-04-01T08:38:43;93192.13;;;13.15;55.42
65832;BME280;52593;42.648;23.332;2023-04-01T08:44:09;93182.56;;;13.31;54.49
65832;BME280;52593;42.648;23.332;2023-04-01T09:01:03;93151.50;;;13.99;51.69
65832;BME280;52593;42.648;23.332;2023-04-01T09:12:35;93146.56;;;15.16;47.52
65832;BME280;52593;42.648;23.332;2023-04-01T09:18:20;93141.53;;;15.59;44.85
65832;BME280;52593;42.648;23.332;2023-04-01T09:26:13;93146.47;;;15.67;43.30
65832;BME280;52593;42.648;23.332;2023-04-01T09:34:30;93120.41;;;15.73;42.83
65832;BME280;52593;42.648;23.332;2023-04-01T09:42:42;93114.19;;;15.90;41.49
65832;BME280;52593;42.648;23.332;2023-04-01T09:53:07;93087.09;;;16.61;40.68
65832;BME280;52593;42.648;23.332;2023-04-01T09:59:08;93082.66;;;17.52;39.52
65832;BME280;52593;42.648;23.332;2023-04-01T10:26:52;93046.44;;;19.30;34.53
65832;BME280;52593;42.648;23.332;2023-04-01T11:09:21;92983.78;;;17.14;35.47
65832;BME280;52593;42.648;23.332;2023-04-01T11:17:55;93010.13;;;16.96;35.39
65832;BME280;52593;42.648;23.332;2023-04-01T11:26:48;93017.81;;;16.45;39.55
65832;BME280;52593;42.648;23.332;2023-04-01T11:29:38;93031.88;;;16.14;40.09
65832;BME280;52593;42.648;23.332;2023-04-01T11:45:20;93131.22;;;15.00;48.09
65832;BME280;52593;42.648;23.332;2023-04-01T11:50:57;93230.78;;;13.26;60.90
65832;BME280;52593;42.648;23.332;2023-04-01T12:02:03;93288.53;;;10.10;85.86
65832;BME280;52593;42.648;23.332;2023-04-01T12:20:52;93246.09;;;10.98;92.27
65832;BME280;52593;42.648;23.332;2023-04-01T12:26:23;93233.06;;;10.83;90.37
65832;BME280;52593;42.648;23.332;2023-04-01T12:34:32;93211.25;;;10.79;87.90
65832;BME280;52593;42.648;23.332;2023-04-01T12:51:23;93262.84;;;10.55;92.07
65832;BME280;52593;42.648;23.332;2023-04-01T13:02:11;93244.06;;;10.68;93.71
65832;BME280;52593;42.648;23.332;2023-04-01T13:04:48;93241.53;;;10.73;92.71
65832;BME280;52593;42.648;23.332;2023-04-01T13:13:10;93217.66;;;10.78;93.79
65832;BME280;52593;42.648;23.332;2023-04-01T13:15:58;93180.41;;;11.20;92.48
65832;BME280;52593;42.648;23.332;2023-04-01T13:26:41;93150.41;;;14.87;73.22
65832;BME280;52593;42.648;23.332;2023-04-01T13:29:20;93169.56;;;15.41;67.98
65832;BME280;52593;42.648;23.332;2023-04-01T13:32:10;93144.97;;;15.77;67.49
65832;BME280;52593;42.648;23.332;2023-04-01T13:43:12;93133.34;;;16.15;64.42
65832;BME280;52593;42.648;23.332;2023-04-01T13:51:37;93119.31;;;17.38;57.22
65832;BME280;52593;42.648;23.332;2023-04-01T13:59:56;93096.03;;;19.56;48.59
65832;BME280;52593;42.648;23.332;2023-04-01T14:07:38;93061.91;;;20.65;44.60
65832;BME280;52593;42.648;23.332;2023-04-01T14:10:23;93049.09;;;16.68;45.84
65832;BME280;52593;42.648;23.332;2023-04-01T14:23:58;93072.53;;;13.12;58.58
65832;BME280;52593;42.648;23.332;2023-04-01T14:26:40;93060.00;;;13.53;57.30
65832;BME280;52593;42.648;23.332;2023-04-01T14:29:15;93065.66;;;13.69;51.37
65832;BME280;52593;42.648;23.332;2023-04-01T14:42:41;93073.09;;;15.43;63.71
65832;BME280;52593;42.648;23.332;2023-04-01T14:50:50;93061.72;;;16.89;57.88
65832;BME280;52593;42.648;23.332;2023-04-01T14:55:55;93048.38;;;15.07;63.58
65832;BME280;52593;42.648;23.332;2023-04-01T14:58:23;93050.22;;;14.68;65.32
65832;BME280;52593;42.648;23.332;2023-04-01T15:12:03;93075.59;;;13.28;71.56
65832;BME280;52593;42.648;23.332;2023-04-01T15:14:44;93081.66;;;13.23;71.58
65832;BME280;52593;42.648;23.332;2023-04-01T15:17:24;93078.50;;;13.02;72.48
65832;BME280;52593;42.648;23.332;2023-04-01T15:25:47;93072.13;;;12.68;73.77
65832;BME280;52593;42.648;23.332;2023-04-01T15:33:42;93076.16;;;12.35;75.38
65832;BME280;52593;42.648;23.332;2023-04-01T15:42:11;93091.13;;;12.12;77.52
65832;BME280;52593;42.648;23.332;2023-04-01T15:47:45;93097.16;;;12.08;76.57
65832;BME280;52593;42.648;23.332;2023-04-01T15:58:37;93303.72;;;9.04;74.42
65832;BME280;52593;42.648;23.332;2023-04-01T16:06:56;93372.91;;;6.89;91.54
65832;BME280;52593;42.648;23.332;2023-04-01T16:12:04;93380.00;;;6.46;97.64
65832;BME280;52593;42.648;23.332;2023-04-01T16:17:35;93387.94;;;6.60;99.49
65832;BME280;52593;42.648;23.332;2023-04-01T16:22:58;93381.81;;;6.60;100.00
65832;BME280;52593;42.648;23.332;2023-04-01T16:25:40;93386.47;;;6.58;100.00
65832;BME280;52593;42.648;23.332;2023-04-01T16:28:26;93380.41;;;6.64;100.00
65832;BME280;52593;42.648;23.332;2023-04-01T16:31:25;93392.75;;;6.72;99.86
65832;BME280;52593;42.648;23.332;2023-04-01T16:34:17;93393.22;;;6.75;97.17
65832;BME280;52593;42.648;23.332;2023-04-01T16:36:51;93395.69;;;6.77;97.06
65832;BME280;52593;42.648;23.332;2023-04-01T16:39:27;93404.91;;;6.81;95.99
65832;BME280;52593;42.648;23.332;2023-04-01T16:44:59;93398.97;;;6.79;95.04
65832;BME280;52593;42.648;23.332;2023-04-01T16:47:31;93400.72;;;6.72;94.15
65832;BME280;52593;42.648;23.332;2023-04-01T16:52:59;93389.09;;;6.73;91.84
65832;BME280;52593;42.648;23.332;2023-04-01T16:58:07;93389.13;;;6.58;92.34
65832;BME280;52593;42.648;23.332;2023-04-01T17:00:48;93396.53;;;6.63;92.21
65832;BME280;52593;42.648;23.332;2023-04-01T17:03:29;93373.19;;;6.58;94.47
65832;BME280;52593;42.648;23.332;2023-04-01T17:12:01;93389.72;;;6.75;90.90
65832;BME280;52593;42.648;23.332;2023-04-01T17:26:26;93414.50;;;6.75;86.67
65832;BME280;52593;42.648;23.332;2023-04-01T17:45:33;93426.47;;;6.50;89.15
65832;BME280;52593;42.648;23.332;2023-04-01T17:48:18;93423.25;;;6.54;88.33
65832;BME280;52593;42.648;23.332;2023-04-01T18:05:22;93468.28;;;6.77;83.79
65832;BME280;52593;42.648;23.332;2023-04-01T18:10:41;93477.53;;;6.82;82.58
65832;BME280;52593;42.648;23.332;2023-04-01T18:13:51;93480.66;;;6.85;82.53
65832;BME280;52593;42.648;23.332;2023-04-01T18:16:55;93501.66;;;6.80;84.06
65832;BME280;52593;42.648;23.332;2023-04-01T18:22:21;93501.50;;;6.67;86.75
65832;BME280;52593;42.648;23.332;2023-04-01T18:25:04;93511.69;;;6.63;87.00
65832;BME280;52593;42.648;23.332;2023-04-01T18:27:39;93512.31;;;6.50;88.06
65832;BME280;52593;42.648;23.332;2023-04-01T18:35:47;93506.38;;;6.33;89.56
65832;BME280;52593;42.648;23.332;2023-04-01T18:40:51;93494.00;;;6.25;89.96
65832;BME280;52593;42.648;23.332;2023-04-01T18:49:13;93511.38;;;6.43;85.90
65832;BME280;52593;42.648;23.332;2023-04-01T18:54:46;93500.69;;;6.51;83.82
65832;BME280;52593;42.648;23.332;2023-04-01T18:57:18;93503.59;;;6.71;80.60
65832;BME280;52593;42.648;23.332;2023-04-01T18:59:55;93509.44;;;6.82;80.06
65832;BME280;52593;42.648;23.332;2023-04-01T19:02:30;93517.06;;;6.85;80.39
65832;BME280;52593;42.648;23.332;2023-04-01T19:05:19;93523.72;;;6.95;78.00
65832;BME280;52593;42.648;23.332;2023-04-01T19:07:54;93527.19;;;6.96;79.13
65832;BME280;52593;42.648;23.332;2023-04-01T19:21:04;93556.66;;;6.79;81.12
65832;BME280;52593;42.648;23.332;2023-04-01T19:24:12;93560.84;;;6.89;81.25
65832;BME280;52593;42.648;23.332;2023-04-01T19:35:03;93563.63;;;6.95;77.97
65832;BME280;52593;42.648;23.332;2023-04-01T19:37:51;93564.69;;;7.01;78.01
65832;BME280;52593;42.648;23.332;2023-04-01T19:50:57;93596.38;;;6.66;80.40
65832;BME280;52593;42.648;23.332;2023-04-01T19:54:09;93592.31;;;6.70;80.85
65832;BME280;52593;42.648;23.332;2023-04-01T20:02:00;93598.91;;;6.59;81.64
65832;BME280;52593;42.648;23.332;2023-04-01T20:04:43;93604.16;;;6.68;80.04
65832;BME280;52593;42.648;23.332;2023-04-01T20:14:51;93576.63;;;7.05;71.98
65832;BME280;52593;42.648;23.332;2023-04-01T20:17:24;93583.59;;;7.06;71.85
65832;BME280;52593;42.648;23.332;2023-04-01T20:24:58;93583.78;;;7.05;71.92
65832;BME280;52593;42.648;23.332;2023-04-01T20:27:36;93582.31;;;7.02;72.10
65832;BME280;52593;42.648;23.332;2023-04-01T20:35:49;93595.69;;;7.09;72.50
65832;BME280;52593;42.648;23.332;2023-04-01T20:41:24;93601.66;;;7.11;72.21
65832;BME280;52593;42.648;23.332;2023-04-01T20:44:12;93592.94;;;7.02;73.07
65832;BME280;52593;42.648;23.332;2023-04-01T20:46:42;93593.88;;;6.94;73.77
65832;BME280;52593;42.648;23.332;2023-04-01T20:49:32;93584.34;;;6.85;73.64
65832;BME280;52593;42.648;23.332;2023-04-01T20:54:34;93585.91;;;6.79;74.32
65832;BME280;52593;42.648;23.332;2023-04-01T20:57:09;93596.91;;;6.91;72.27
65832;BME280;52593;42.648;23.332;2023-04-01T21:02:37;93600.56;;;6.90;73.57
65832;BME280;52593;42.648;23.332;2023-04-01T21:10:48;93599.28;;;7.01;72.66
65832;BME280;52593;42.648;23.332;2023-04-01T21:13:25;93608.53;;;7.05;72.30
65832;BME280;52593;42.648;23.332;2023-04-01T21:16:18;93611.81;;;7.07;72.77
65832;BME280;52593;42.648;23.332;2023-04-01T21:18:56;93602.22;;;7.06;71.29
65832;BME280;52593;42.648;23.332;2023-04-01T21:27:51;93606.28;;;7.39;68.33
65832;BME280;52593;42.648;23.332;2023-04-01T21:33:14;93609.66;;;7.47;66.65
65832;BME280;52593;42.648;23.332;2023-04-01T21:52:54;93609.88;;;7.31;65.93
65832;BME280;52593;42.648;23.332;2023-04-01T21:55:37;93613.09;;;7.41;65.81
65832;BME280;52593;42.648;23.332;2023-04-01T22:14:24;93602.19;;;7.21;68.03
65832;BME280;52593;42.648;23.332;2023-04-01T22:17:05;93603.22;;;7.05;68.57
65832;BME280;52593;42.648;23.332;2023-04-01T22:22:30;93602.84;;;7.08;67.75
65832;BME280;52593;42.648;23.332;2023-04-01T22:25:14;93608.63;;;7.12;67.51
65832;BME280;52593;42.648;23.332;2023-04-01T22:27:47;93591.41;;;7.08;66.67
65832;BME280;52593;42.648;23.332;2023-04-01T22:30:25;93591.22;;;7.09;65.97
65832;BME280;52593;42.648;23.332;2023-04-01T22:33:10;93600.44;;;7.13;66.10
65832;BME280;52593;42.648;23.332;2023-04-01T22:41:21;93606.69;;;7.21;64.01
65832;BME280;52593;42.648;23.332;2023-04-01T22:43:55;93620.72;;;7.29;65.37
65832;BME280;52593;42.648;23.332;2023-04-01T22:49:16;93626.28;;;7.35;64.17
65832;BME280;52593;42.648;23.332;2023-04-01T22:51:50;93618.13;;;7.36;62.86
65832;BME280;52593;42.648;23.332;2023-04-01T22:54:43;93634.63;;;7.46;63.08
65832;BME280;52593;42.648;23.332;2023-04-01T22:57:15;93643.34;;;7.40;63.31
65832;BME280;52593;42.648;23.332;2023-04-01T23:02:21;93641.25;;;7.50;62.55
65832;BME280;52593;42.648;23.332;2023-04-01T23:04:54;93650.66;;;7.53;63.16
65832;BME280;52593;42.648;23.332;2023-04-01T23:09:58;93638.09;;;7.47;63.10
65832;BME280;52593;42.648;23.332;2023-04-01T23:12:26;93635.81;;;7.44;64.30
65832;BME280;52593;42.648;23.332;2023-04-01T23:14:55;93638.78;;;7.34;64.65
65832;BME280;52593;42.648;23.332;2023-04-01T23:20:12;93635.31;;;7.19;65.05
65832;BME280;52593;42.648;23.332;2023-04-01T23:23:11;93643.94;;;7.21;63.87
65832;BME280;52593;42.648;23.332;2023-04-01T23:25:54;93638.16;;;7.32;63.38
65832;BME280;52593;42.648;23.332;2023-04-01T23:33:54;93656.13;;;7.30;63.40
65832;BME280;52593;42.648;23.332;2023-04-01T23:36:20;93638.72;;;7.27;63.54
65832;BME280;52593;42.648;23.332;2023-04-01T23:38:48;93641.19;;;7.29;63.70
65832;BME280;52593;42.648;23.332;2023-04-01T23:41:27;93655.50;;;7.28;63.31
65832;BME280;52593;42.648;23.332;2023-04-01T23:44:18;93645.75;;;7.35;62.66
65832;BME280;52593;42.648;23.332;2023-04-01T23:46:46;93641.91;;;7.23;63.47
65832;BME280;52593;42.648;23.332;2023-04-01T23:49:20;93660.44;;;7.31;63.04
65832;BME280;52593;42.648;23.332;2023-04-01T23:51:56;93637.03;;;7.41;62.61
65832;BME280;52593;42.648;23.332;2023-04-01T23:54:44;93646.66;;;7.42;62.53
65832;BME280;52593;42.648;23.332;2023-04-01T23:57:16;93639.78;;;7.18;63.36
65832;BME280;52593;42.648;23.332;2023-04-01T23:59:43;93634.56;;;7.25;62.61
